Time;durP1;ratioP1;P1;durP2;ratioP2;P2;SDS_P1;SDS_P2;PMS_P1;PMS_P2;Temp;Humidity;BMP_temperature;BMP_pressure;BME280_temperature;BME280_humidity;BME280_pressure;Samples;Min_cycle;Max_cycle;Signal;HPM_P1;HPM_P2
2022/06/23 00:01:54;;;;;;;4.10;2.80;;;;;;;10.24;70.28;96974.00;110266;1247;68472;-78
2022/06/23 00:04:35;;;;;;;4.80;2.80;;;;;;;10.23;69.30;96972.55;110219;1247;59687;-75
2022/06/23 00:07:24;;;;;;;2.80;2.40;;;;;;;10.18;67.03;96970.09;110209;1247;59752;-78
2022/06/23 00:10:19;;;;;;;4.20;2.60;;;;;;;10.10;65.80;96974.90;110048;1247;70606;-78
2022/06/23 00:12:53;;;;;;;5.80;2.90;;;;;;;10.03;69.17;96977.16;110201;1247;68730;-79
2022/06/23 00:15:29;;;;;;;4.20;2.90;;;;;;;10.00;70.38;96975.87;110212;1248;69504;-80
2022/06/23 00:18:05;;;;;;;4.60;2.80;;;;;;;9.99;70.23;96980.86;109987;1248;59733;-79
2022/06/23 00:20:42;;;;;;;3.80;2.90;;;;;;;9.98;70.12;96982.48;110193;1248;59655;-77
2022/06/23 00:23:21;;;;;;;5.50;2.40;;;;;;;9.96;68.96;96983.98;110215;1247;71390;-78
2022/06/23 00:26:10;;;;;;;3.00;2.60;;;;;;;9.94;70.72;96984.44;110200;1247;68358;-78
2022/06/23 00:28:52;;;;;;;3.80;2.40;;;;;;;9.92;71.47;96982.86;110218;1247;68584;-78
2022/06/23 00:31:28;;;;;;;3.40;2.60;;;;;;;9.91;70.89;96981.78;110071;1250;59704;-75
2022/06/23 00:34:01;;;;;;;4.20;2.80;;;;;;;9.91;71.50;96974.80;110233;1247;59708;-78
2022/06/23 00:36:37;;;;;;;4.10;2.40;;;;;;;9.92;71.48;96977.89;109996;1248;71561;-77
2022/06/23 00:39:21;;;;;;;3.30;2.40;;;;;;;9.91;70.92;96983.71;109964;1247;67752;-77
2022/06/23 00:41:51;;;;;;;4.10;3.10;;;;;;;9.89;71.39;96981.71;110023;1247;69386;-78
2022/06/23 00:44:43;;;;;;;4.50;3.40;;;;;;;9.88;71.27;96981.31;110268;1247;59729;-76
2022/06/23 00:47:19;;;;;;;5.00;3.30;;;;;;;9.85;71.79;96980.27;109930;1248;59768;-77
2022/06/23 00:50:02;;;;;;;3.70;2.70;;;;;;;9.83;71.29;96973.30;110278;1247;71334;-74
2022/06/23 00:52:44;;;;;;;3.10;2.80;;;;;;;9.83;70.16;96973.17;110285;1247;67869;-79
2022/06/23 00:55:28;;;;;;;3.50;2.50;;;;;;;9.79;67.69;96965.80;110272;1247;68629;-80
2022/06/23 00:58:06;;;;;;;3.10;2.30;;;;;;;9.75;67.28;96958.48;109927;1250;59711;-79
2022/06/23 01:00:39;;;;;;;4.20;3.00;;;;;;;9.67;70.73;96952.92;109938;1247;59698;-79
2022/06/23 01:03:27;;;;;;;3.90;3.30;;;;;;;9.62;71.94;96950.00;110217;1247;70755;-78
2022/06/23 01:06:11;;;;;;;3.70;2.50;;;;;;;9.55;72.28;96947.97;110175;1248;68799;-80
2022/06/23 01:08:54;;;;;;;3.70;2.70;;;;;;;9.48;72.15;96949.55;110190;1247;69500;-80
2022/06/23 01:11:30;;;;;;;3.90;2.70;;;;;;;9.45;70.33;96956.42;110278;1247;59710;-78
2022/06/23 01:14:23;;;;;;;5.90;4.40;;;;;;;9.41;72.22;96961.70;110296;1247;59669;-81
2022/06/23 01:17:04;;;;;;;4.20;3.60;;;;;;;9.33;70.45;96961.60;110229;1247;71518;-80
2022/06/23 01:19:51;;;;;;;4.40;2.80;;;;;;;9.19;70.67;96961.97;110295;1247;68724;-79
2022/06/23 01:22:38;;;;;;;4.40;2.70;;;;;;;9.12;72.27;96957.64;110237;1248;68811;-81
2022/06/23 01:25:33;;;;;;;4.90;3.20;;;;;;;9.10;71.95;96955.17;110281;1247;59715;-81
2022/06/23 01:28:05;;;;;;;5.80;3.60;;;;;;;9.07;70.76;96961.84;110273;1247;59687;-72
2022/06/23 01:30:46;;;;;;;5.40;4.00;;;;;;;9.04;69.79;96955.98;109905;1247;71536;-78
2022/06/23 01:33:45;;;;;;;5.70;4.20;;;;;;;8.95;72.55;96950.70;110269;1247;68612;-72
2022/06/23 01:36:25;;;;;;;5.00;3.30;;;;;;;8.87;72.49;96957.02;109597;1253;68621;-79
2022/06/23 01:39:02;;;;;;;4.50;3.30;;;;;;;8.83;71.72;96957.31;109599;1253;59697;-78
2022/06/23 01:41:42;;;;;;;4.70;3.40;;;;;;;8.81;72.42;96960.09;109532;1255;59640;-78
2022/06/23 01:44:36;;;;;;;4.30;3.40;;;;;;;8.77;73.19;96956.55;109519;1256;70585;-78
2022/06/23 01:47:28;;;;;;;5.20;3.70;;;;;;;8.73;71.90;96955.95;109437;1256;68075;-78
2022/06/23 01:50:24;;;;;;;5.50;3.20;;;;;;;8.69;72.13;96957.50;109465;1255;69247;-79
2022/06/23 01:53:25;;;;;;;3.00;2.70;;;;;;;8.66;71.58;96953.73;109417;1255;59701;-78
2022/06/23 01:56:12;;;;;;;3.70;3.10;;;;;;;8.64;72.12;96956.10;108871;1262;59782;-72
2022/06/23 01:58:53;;;;;;;5.40;3.30;;;;;;;8.64;71.45;96953.83;108956;1262;71539;-79
2022/06/23 02:01:42;;;;;;;4.30;2.90;;;;;;;8.67;71.48;96957.46;108954;1262;68445;-78
2022/06/23 02:04:49;;;;;;;5.50;3.40;;;;;;;8.70;72.04;96955.00;108976;1261;69266;-74
2022/06/23 02:07:32;;;;;;;4.80;3.20;;;;;;;8.72;72.70;96954.98;108994;1261;59804;-73
2022/06/23 02:10:36;;;;;;;5.60;3.30;;;;;;;8.75;72.78;96955.88;108988;1262;59854;-79
2022/06/23 02:13:38;;;;;;;4.90;4.40;;;;;;;8.76;73.31;96963.09;109179;1256;71532;-79
2022/06/23 02:16:15;;;;;;;5.90;3.70;;;;;;;8.75;75.84;96969.73;109506;1256;68617;-78
2022/06/23 02:19:00;;;;;;;4.70;3.70;;;;;;;8.74;75.75;96972.58;109495;1256;70419;-74
2022/06/23 02:21:54;;;;;;;5.60;4.20;;;;;;;8.74;76.59;96971.06;109504;1256;59741;-77
2022/06/23 02:24:33;;;;;;;5.20;3.80;;;;;;;8.74;76.41;96965.48;109425;1256;59698;-80
2022/06/23 02:27:20;;;;;;;4.80;3.80;;;;;;;8.74;76.22;96970.85;109419;1256;71638;-80
2022/06/23 02:30:19;;;;;;;5.40;3.60;;;;;;;8.71;77.00;96979.25;109424;1255;68308;-80
2022/06/23 02:33:13;;;;;;;4.90;4.00;;;;;;;8.64;76.84;96980.55;109069;1256;68580;-79
2022/06/23 02:35:52;;;;;;;5.80;4.30;;;;;;;8.58;77.43;96991.81;109341;1257;59722;-78
2022/06/23 02:38:41;;;;;;;5.40;4.20;;;;;;;8.52;76.51;96991.16;109549;1255;59700;-71
2022/06/23 02:41:20;;;;;;;7.50;4.50;;;;;;;8.48;77.08;96987.82;109434;1255;71393;-77
2022/06/23 02:44:28;;;;;;;5.60;4.80;;;;;;;8.47;78.16;96987.37;109592;1256;68503;-79
2022/06/23 02:47:23;;;;;;;5.60;4.60;;;;;;;8.46;78.08;96986.26;109466;1256;68740;-80
2022/06/23 02:50:02;;;;;;;5.80;4.80;;;;;;;8.48;75.85;96977.77;109501;1255;59742;-80
2022/06/23 02:52:56;;;;;;;4.70;4.10;;;;;;;8.52;75.43;96973.64;109499;1255;59756;-80
2022/06/23 02:55:56;;;;;;;4.50;3.80;;;;;;;8.54;74.90;96976.58;109521;1256;71363;-78
2022/06/23 02:58:32;;;;;;;6.10;3.90;;;;;;;8.55;74.37;96973.23;109450;1256;68004;-82
2022/06/23 03:01:19;;;;;;;5.90;4.00;;;;;;;8.57;77.43;96975.75;109546;1254;68521;-77
2022/06/23 03:03:56;;;;;;;6.10;4.40;;;;;;;8.60;78.49;96978.09;109507;1253;59797;-78
2022/06/23 03:06:33;;;;;;;4.90;4.30;;;;;;;8.66;75.71;96971.75;109430;1256;59774;-81
2022/06/23 03:09:13;;;;;;;5.40;4.10;;;;;;;8.74;75.86;96977.31;109536;1250;71581;-79
2022/06/23 03:11:54;;;;;;;7.30;4.20;;;;;;;8.81;75.45;96977.27;109864;1250;68613;-79
2022/06/23 03:14:48;;;;;;;6.70;4.60;;;;;;;8.90;77.20;96981.16;110220;1247;69265;-81
2022/06/23 03:17:28;;;;;;;6.60;5.20;;;;;;;8.98;77.78;96983.17;110002;1250;59671;-69
2022/06/23 03:20:18;;;;;;;;;;;;;;;9.05;76.88;96988.38;110233;1250;59757;-78
2022/06/23 03:22:57;;;;;;;5.40;4.20;;;;;;;9.14;74.17;96990.70;110246;1247;70685;-80
2022/06/23 03:25:47;;;;;;;6.70;4.00;;;;;;;9.21;73.70;96998.66;110238;1247;68448;-81
2022/06/23 03:28:22;;;;;;;5.80;3.70;;;;;;;9.30;76.23;97007.61;110260;1247;69421;-83
2022/06/23 03:31:03;;;;;;;5.40;4.20;;;;;;;9.38;73.92;97005.46;110235;1248;60097;-79
2022/06/23 03:33:46;;;;;;;5.70;4.10;;;;;;;9.45;75.38;97006.48;110217;1248;59660;-76
2022/06/23 03:36:38;;;;;;;4.90;3.60;;;;;;;9.54;76.26;97010.34;110191;1247;70800;-81
2022/06/23 03:42:23;;;;;;;4.90;4.00;;;;;;;9.67;74.91;97011.98;110170;1247;69701;-80
2022/06/23 03:44:56;;;;;;;5.90;4.30;;;;;;;9.75;74.99;97017.14;110059;1247;59691;-80
2022/06/23 03:47:43;;;;;;;6.10;3.90;;;;;;;9.82;75.37;97017.29;110215;1247;59687;-79
2022/06/23 03:50:27;;;;;;;6.80;4.30;;;;;;;9.88;75.40;97019.89;110189;1249;71545;-82
2022/06/23 03:53:39;;;;;;;5.30;4.00;;;;;;;9.95;74.95;97023.56;109955;1250;68407;-74
2022/06/23 03:56:14;;;;;;;5.60;4.40;;;;;;;10.03;74.57;97019.86;110146;1248;68651;-78
2022/06/23 03:59:13;;;;;;;5.80;4.60;;;;;;;10.09;74.31;97016.41;109952;1250;59748;-78
2022/06/23 04:02:04;;;;;;;4.80;3.60;;;;;;;10.16;74.20;97026.64;109923;1250;59730;-80
2022/06/23 04:05:19;;;;;;;4.10;3.30;;;;;;;10.26;73.18;97026.98;110053;1247;70762;-78
2022/06/23 04:07:56;;;;;;;6.00;4.20;;;;;;;10.37;72.72;97024.54;110187;1249;68491;-81
2022/06/23 04:10:39;;;;;;;5.80;4.00;;;;;;;10.47;72.35;97029.67;109990;1250;69348;-81
2022/06/23 04:13:15;;;;;;;7.20;4.40;;;;;;;10.54;73.60;97034.70;110173;1248;59752;-81
2022/06/23 04:15:45;;;;;;;7.10;4.40;;;;;;;10.57;73.40;97036.20;109947;1247;59770;-77
2022/06/23 04:18:21;;;;;;;7.60;4.50;;;;;;;10.60;72.77;97040.20;110184;1247;71988;-78
2022/06/23 04:21:09;;;;;;;8.30;4.60;;;;;;;10.64;72.94;97041.96;110205;1247;68547;-81
2022/06/23 04:23:44;;;;;;;6.60;4.20;;;;;;;10.71;72.59;97046.55;109873;1248;68572;-82
2022/06/23 04:26:22;;;;;;;6.30;4.60;;;;;;;10.79;72.63;97046.67;110207;1247;59735;-81
2022/06/23 04:28:59;;;;;;;7.90;4.90;;;;;;;10.87;72.49;97048.66;110224;1247;59766;-81
2022/06/23 04:31:33;;;;;;;6.60;4.50;;;;;;;10.93;71.98;97046.62;110170;1247;71404;-81
2022/06/23 04:34:03;;;;;;;6.80;4.40;;;;;;;11.02;72.31;97050.79;110008;1247;67854;-81
2022/06/23 04:36:42;;;;;;;6.10;5.10;;;;;;;11.14;72.29;97053.27;110156;1247;68669;-80
2022/06/23 04:39:41;;;;;;;7.00;4.80;;;;;;;11.28;71.97;97057.39;110216;1247;59750;-81
2022/06/23 04:42:21;;;;;;;8.00;4.20;;;;;;;11.46;71.48;97051.91;110209;1247;59699;-80
2022/06/23 04:44:55;;;;;;;9.50;4.20;;;;;;;11.59;71.12;97044.36;110181;1247;71592;-80
2022/06/23 04:47:31;;;;;;;6.40;3.90;;;;;;;11.78;70.94;97043.15;110280;1247;68080;-78
2022/06/23 04:50:15;;;;;;;5.40;4.50;;;;;;;12.00;70.19;97047.64;110182;1247;68605;-81
2022/06/23 04:52:52;;;;;;;7.40;4.70;;;;;;;12.20;69.80;97046.59;109957;1249;59781;-82
2022/06/23 04:55:26;;;;;;;10.30;5.10;;;;;;;12.42;69.62;97046.52;110215;1247;59695;-82
2022/06/23 04:58:16;;;;;;;7.50;4.60;;;;;;;12.60;68.93;97051.09;110293;1247;72238;-81
2022/06/23 05:00:54;;;;;;;5.80;4.30;;;;;;;12.78;67.73;97049.88;110253;1247;67816;-81
2022/06/23 05:03:35;;;;;;;5.00;4.00;;;;;;;12.98;67.23;97051.58;109942;1250;67666;-83
2022/06/23 05:06:35;;;;;;;20.70;5.60;;;;;;;13.23;65.90;97053.58;109992;1250;59770;-83
2022/06/23 05:09:17;;;;;;;12.10;4.50;;;;;;;13.50;65.08;97052.71;110216;1247;60094;-81
2022/06/23 05:12:17;;;;;;;18.90;5.40;;;;;;;13.72;64.64;97047.77;110146;1249;72122;-81
2022/06/23 05:14:53;;;;;;;18.90;5.50;;;;;;;13.97;63.24;97048.11;110204;1247;69214;-84
2022/06/23 05:17:26;;;;;;;10.00;4.30;;;;;;;14.17;63.15;97049.41;110250;1247;69487;-81
2022/06/23 05:19:59;;;;;;;9.50;4.00;;;;;;;14.33;62.51;97045.81;110234;1247;59685;-81
2022/06/23 05:22:34;;;;;;;11.40;4.40;;;;;;;14.42;61.93;97047.19;110286;1248;59695;-82
2022/06/23 05:25:31;;;;;;;8.50;3.70;;;;;;;14.53;61.93;97046.05;109951;1248;71562;-83
2022/06/23 05:28:08;;;;;;;6.70;3.70;;;;;;;14.69;61.24;97041.33;110219;1247;67809;-81
2022/06/23 05:30:48;;;;;;;7.10;4.20;;;;;;;14.80;60.08;97040.80;110190;1248;69542;-82
2022/06/23 05:33:20;;;;;;;9.80;5.30;;;;;;;14.95;60.32;97038.20;110030;1247;59691;-81
2022/06/23 05:35:54;;;;;;;7.90;4.10;;;;;;;14.98;58.92;97042.25;110219;1247;59690;-80
2022/06/23 05:38:33;;;;;;;13.60;5.60;;;;;;;15.01;58.22;97041.23;109956;1248;71593;-78
2022/06/23 05:41:13;;;;;;;15.60;4.50;;;;;;;15.12;58.23;97044.58;110178;1248;66814;-82
2022/06/23 05:43:43;;;;;;;6.90;3.90;;;;;;;15.21;58.84;97042.52;110176;1248;69404;-76
2022/06/23 05:46:21;;;;;;;9.20;5.60;;;;;;;15.36;58.77;97038.20;110172;1250;59729;-81
2022/06/23 05:49:05;;;;;;;10.30;4.50;;;;;;;15.53;57.30;97036.88;109989;1250;59750;-76
2022/06/23 05:51:49;;;;;;;5.40;3.30;;;;;;;15.74;57.69;97041.13;110010;1249;70908;-80
2022/06/23 05:54:23;;;;;;;7.40;4.10;;;;;;;15.88;55.90;97045.77;109823;1247;67708;-80
2022/06/23 05:56:58;;;;;;;7.70;4.00;;;;;;;16.12;55.73;97045.77;110171;1247;69472;-82
2022/06/23 05:59:38;;;;;;;7.60;4.20;;;;;;;16.32;54.96;97040.76;110183;1247;59682;-80
2022/06/23 06:02:15;;;;;;;7.10;3.70;;;;;;;16.15;53.20;97048.42;110070;1247;59700;-79
2022/06/23 06:04:53;;;;;;;4.30;3.20;;;;;;;16.23;53.27;97047.14;110249;1247;71594;-70
2022/06/23 06:07:33;;;;;;;6.40;3.80;;;;;;;16.26;53.74;97042.75;110244;1247;67619;-76
2022/06/23 06:10:15;;;;;;;4.20;2.80;;;;;;;16.44;53.43;97036.96;109948;1248;68671;-79
2022/06/23 06:12:46;;;;;;;5.10;3.60;;;;;;;16.66;52.95;97044.10;109921;1250;59760;-76
2022/06/23 06:15:35;;;;;;;;;;;;;;;16.82;53.25;97040.42;110286;1247;59665;-74
2022/06/23 06:18:35;;;;;;;3.60;3.00;;;;;;;17.03;52.09;97038.36;110215;1247;71354;-77
2022/06/23 06:21:07;;;;;;;4.30;3.10;;;;;;;16.96;51.75;97040.87;110166;1247;68016;-79
2022/06/23 06:23:55;;;;;;;4.10;2.70;;;;;;;17.22;51.61;97044.27;109952;1250;68658;-78
2022/06/23 06:26:32;;;;;;;3.70;3.10;;;;;;;17.53;51.57;97045.58;110238;1247;59610;-77
2022/06/23 06:29:14;;;;;;;5.70;3.70;;;;;;;17.75;50.81;97047.79;110034;1250;59715;-81
2022/06/23 06:31:52;;;;;;;6.40;4.30;;;;;;;17.64;48.85;97051.94;110211;1250;71558;-76
2022/06/23 06:34:34;;;;;;;7.30;3.90;;;;;;;17.85;49.07;97052.23;110169;1247;68009;-81
2022/06/23 06:37:08;;;;;;;6.70;4.50;;;;;;;17.99;49.66;97058.10;110127;1247;68641;-82
2022/06/23 06:39:45;;;;;;;9.40;4.50;;;;;;;18.14;49.53;97063.11;110032;1249;59755;-81
2022/06/23 06:42:33;;;;;;;6.80;4.20;;;;;;;18.25;48.55;97065.48;110128;1250;59742;-76
2022/06/23 06:45:13;;;;;;;6.50;3.90;;;;;;;18.22;48.79;97066.88;109936;1249;69980;-70
2022/06/23 06:47:44;;;;;;;5.50;4.20;;;;;;;18.38;48.41;97063.21;109918;1249;68615;-77
2022/06/23 06:50:19;;;;;;;4.50;3.50;;;;;;;18.53;49.14;97063.61;110090;1250;68674;-78
2022/06/23 06:52:51;;;;;;;7.00;3.80;;;;;;;18.70;48.16;97066.65;109882;1250;59700;-76
2022/06/23 06:55:32;;;;;;;6.50;4.20;;;;;;;18.85;47.36;97064.81;109988;1250;59718;-76
2022/06/23 06:58:15;;;;;;;5.70;4.60;;;;;;;19.01;46.27;97059.18;109871;1250;71014;-81
2022/06/23 07:00:54;;;;;;;5.10;3.40;;;;;;;19.11;46.17;97065.39;109893;1250;68916;-81
2022/06/23 07:03:26;;;;;;;7.40;4.20;;;;;;;19.49;45.67;97067.25;110205;1250;68232;-80
2022/06/23 07:06:00;;;;;;;5.70;3.60;;;;;;;19.72;45.01;97071.02;109987;1250;59660;-79
2022/06/23 07:08:39;;;;;;;6.00;3.60;;;;;;;20.01;44.59;97067.66;110170;1250;60039;-78
2022/06/23 07:11:12;;;;;;;6.50;4.30;;;;;;;20.02;43.82;97069.48;109950;1250;71713;-82
2022/06/23 07:13:43;;;;;;;3.80;2.90;;;;;;;20.28;44.78;97074.13;109905;1250;68603;-81
2022/06/23 07:16:41;;;;;;;5.50;3.70;;;;;;;20.49;43.44;97074.19;109719;1250;69384;-80
2022/06/23 07:19:16;;;;;;;4.50;3.40;;;;;;;20.71;42.90;97068.02;109901;1250;60111;-77
2022/06/23 07:22:09;;;;;;;5.30;3.40;;;;;;;20.82;42.75;97067.67;109908;1250;59704;-77
2022/06/23 07:24:44;;;;;;;5.30;3.00;;;;;;;20.93;42.03;97072.67;109828;1250;71563;-81
2022/06/23 07:27:42;;;;;;;5.30;4.10;;;;;;;21.22;42.72;97075.17;109457;1250;661783;-82
2022/06/23 07:30:15;;;;;;;5.50;3.90;;;;;;;21.37;41.41;97078.40;109991;1249;68867;-81
2022/06/23 07:33:18;;;;;;;4.10;3.30;;;;;;;21.13;41.31;97073.49;110124;1250;59767;-82
2022/06/23 07:36:04;;;;;;;7.90;3.40;;;;;;;20.97;42.15;97072.60;110257;1250;59695;-83
2022/06/23 07:38:40;;;;;;;4.80;3.30;;;;;;;21.00;41.95;97076.09;110018;1250;70637;-81
2022/06/23 07:41:31;;;;;;;6.00;3.70;;;;;;;20.95;41.85;97072.13;109808;1250;68608;-79
2022/06/23 07:44:09;;;;;;;4.40;3.20;;;;;;;21.08;41.43;97074.29;109910;1250;69469;-77
2022/06/23 07:46:38;;;;;;;6.20;3.50;;;;;;;21.34;41.11;97070.24;109889;1250;59824;-71
2022/06/23 07:49:08;;;;;;;6.40;3.50;;;;;;;21.43;41.49;97073.02;109953;1250;59631;-77
2022/06/23 07:51:38;;;;;;;5.50;3.50;;;;;;;21.28;41.74;97075.58;109752;1250;72165;-70
2022/06/23 07:54:14;;;;;;;4.10;3.00;;;;;;;21.15;42.16;97076.02;109892;1250;69309;-71
2022/06/23 07:56:44;;;;;;;4.10;3.20;;;;;;;21.34;42.15;97073.73;110131;1247;69446;-82
2022/06/23 07:59:17;;;;;;;4.20;3.10;;;;;;;21.59;43.53;97076.37;110109;1249;59761;-76
2022/06/23 08:02:26;;;;;;;3.90;2.50;;;;;;;22.25;43.22;97083.21;109816;1250;59609;-76
2022/06/23 08:05:27;;;;;;;5.20;3.60;;;;;;;23.05;41.86;97090.98;109661;1250;72968;-72
2022/06/23 08:07:56;;;;;;;4.10;3.70;;;;;;;23.24;40.13;97084.09;109891;1250;67799;-75
2022/06/23 08:10:29;;;;;;;;;;;;;;;23.32;39.48;97079.71;110078;1250;68794;-72
2022/06/23 08:13:04;;;;;;;4.60;2.80;;;;;;;23.94;39.78;97082.03;109948;1250;59701;-70
2022/06/23 08:19:10;;;;;;;6.00;3.80;;;;;;;25.05;35.88;97081.40;109993;1250;70648;-79
2022/06/23 08:21:45;;;;;;;4.00;2.80;;;;;;;25.32;34.99;97073.69;110012;1250;67621;-81
2022/06/23 08:24:18;;;;;;;4.00;3.00;;;;;;;25.71;33.79;97073.70;109916;1250;69342;-80
2022/06/23 08:27:21;;;;;;;3.90;3.00;;;;;;;26.14;34.99;97074.98;109918;1249;59636;-77
2022/06/23 08:29:55;;;;;;;5.10;2.90;;;;;;;26.91;34.01;97072.10;110164;1250;59714;-79
2022/06/23 08:32:25;;;;;;;4.00;2.90;;;;;;;27.04;31.18;97071.15;109911;1249;71195;-75
2022/06/23 08:35:02;;;;;;;3.20;2.40;;;;;;;27.19;30.60;97073.16;109726;1250;68322;-80
2022/06/23 08:37:41;;;;;;;3.20;2.40;;;;;;;26.94;28.95;97078.82;109927;1250;69451;-76
2022/06/23 08:40:29;;;;;;;2.70;1.70;;;;;;;27.40;28.81;97071.33;110327;1248;59814;-76
2022/06/23 08:43:03;;;;;;;2.50;1.70;;;;;;;27.72;26.79;97070.99;110218;1250;60085;-72
2022/06/23 08:45:40;;;;;;;2.30;1.70;;;;;;;28.23;27.08;97075.89;110288;1250;71529;-80
2022/06/23 08:48:46;;;;;;;2.70;1.60;;;;;;;28.56;27.21;97081.93;109908;1250;69344;-81
2022/06/23 08:51:25;;;;;;;2.80;1.50;;;;;;;28.86;25.03;97082.93;110314;1250;69465;-76
2022/06/23 08:54:05;;;;;;;1.50;1.40;;;;;;;29.04;24.52;97085.13;110306;1248;59705;-70
2022/06/23 08:56:43;;;;;;;1.90;1.10;;;;;;;29.25;25.52;97078.08;110300;1250;59675;-71
2022/06/23 08:59:56;;;;;;;1.40;1.10;;;;;;;29.36;24.86;97082.96;110306;1250;71655;-83
2022/06/23 09:02:32;;;;;;;2.90;1.30;;;;;;;29.53;24.13;97086.89;109910;1256;67829;-86
2022/06/23 09:05:38;;;;;;;2.20;1.50;;;;;;;29.42;23.41;97086.23;109380;1257;68953;-85
2022/06/23 09:08:37;;;;;;;1.20;1.10;;;;;;;29.69;23.95;97086.34;109495;1256;59625;-82
2022/06/23 09:11:41;;;;;;;1.70;1.40;;;;;;;29.49;23.32;97088.02;109516;1256;59675;-83
2022/06/23 09:14:28;;;;;;;2.30;1.50;;;;;;;29.36;24.10;97082.33;109460;1256;70264;-81
2022/06/23 09:17:15;;;;;;;1.90;1.40;;;;;;;29.73;24.03;97082.85;109460;1256;68528;-85
2022/06/23 09:20:08;;;;;;;2.00;1.30;;;;;;;29.54;23.61;97082.73;109874;1256;67770;-81
2022/06/23 09:22:47;;;;;;;2.60;1.70;;;;;;;29.10;22.93;97085.98;109603;1256;59722;-75
2022/06/23 09:25:22;;;;;;;2.40;1.70;;;;;;;29.04;23.85;97086.73;109857;1256;59772;-78
2022/06/23 09:28:20;;;;;;;2.30;1.80;;;;;;;29.36;24.15;97080.71;109685;1256;70463;-84
2022/06/23 09:31:01;;;;;;;3.00;1.30;;;;;;;29.34;24.11;97077.82;109755;1256;69317;-79
2022/06/23 09:33:54;;;;;;;2.40;1.60;;;;;;;29.39;23.59;97074.85;109718;1257;70199;-87
2022/06/23 09:36:44;;;;;;;1.40;1.10;;;;;;;29.68;22.95;97069.39;109788;1256;59708;-81
2022/06/23 09:39:43;;;;;;;2.60;1.40;;;;;;;29.92;23.53;97070.54;110073;1250;59641;-86
2022/06/23 09:42:56;;;;;;;2.10;1.50;;;;;;;29.74;23.39;97065.95;110358;1250;69736;-85
2022/06/23 09:45:48;;;;;;;2.70;1.60;;;;;;;29.67;22.00;97065.90;110395;1250;68606;-83
2022/06/23 09:48:44;;;;;;;1.80;1.30;;;;;;;28.18;23.39;97060.93;110055;1250;68495;-84
2022/06/23 09:51:26;;;;;;;3.40;1.50;;;;;;;28.65;23.75;97058.73;110055;1250;59812;-77
2022/06/23 09:54:30;;;;;;;2.20;1.60;;;;;;;28.74;24.23;97065.88;110112;1251;59641;-74
2022/06/23 09:57:22;;;;;;;1.40;1.30;;;;;;;29.01;23.82;97067.28;109636;1254;71596;-78
2022/06/23 10:00:32;;;;;;;1.70;1.20;;;;;;;28.91;22.98;97073.58;109583;1256;67698;-82
2022/06/23 10:03:17;;;;;;;2.90;1.10;;;;;;;28.67;22.84;97069.42;109025;1261;67857;-79
2022/06/23 10:05:58;;;;;;;1.40;1.20;;;;;;;28.60;23.17;97071.32;109011;1262;59851;-73
2022/06/23 10:08:31;;;;;;;1.70;1.20;;;;;;;28.51;23.55;97071.97;108977;1261;59768;-74
2022/06/23 10:11:09;;;;;;;2.00;1.10;;;;;;;28.53;23.49;97071.70;109021;1262;72269;-78
2022/06/23 10:14:06;;;;;;;2.00;1.30;;;;;;;28.52;23.94;97066.13;109030;1261;68712;-78
2022/06/23 10:16:55;;;;;;;2.40;1.30;;;;;;;28.70;24.50;97067.50;108955;1262;69548;-81
2022/06/23 10:19:27;;;;;;;3.20;1.50;;;;;;;28.56;23.42;97060.09;108762;1262;59712;-79
2022/06/23 10:22:21;;;;;;;3.80;1.90;;;;;;;28.57;23.34;97056.86;108625;1262;59812;-81
2022/06/23 10:25:09;;;;;;;1.60;1.50;;;;;;;28.48;24.99;97058.34;108832;1262;70677;-80
2022/06/23 10:28:06;;;;;;;1.90;1.10;;;;;;;28.65;23.99;97060.19;108991;1262;67855;-78
2022/06/23 10:31:00;;;;;;;1.60;1.10;;;;;;;28.72;23.29;97057.34;108801;1259;69476;-74
2022/06/23 10:34:09;;;;;;;3.30;1.60;;;;;;;28.76;23.10;97055.21;109441;1256;59753;-81
2022/06/23 10:37:08;;;;;;;2.40;1.50;;;;;;;28.90;23.70;97053.42;109275;1258;60153;-78
2022/06/23 10:40:31;;;;;;;2.20;1.40;;;;;;;28.93;22.11;97052.22;109537;1251;72213;-79
2022/06/23 10:43:37;;;;;;;2.30;1.40;;;;;;;27.20;22.51;97043.25;109893;1250;68735;-78
2022/06/23 10:46:16;;;;;;;1.70;1.20;;;;;;;26.94;23.51;97041.34;109844;1250;69545;-76
2022/06/23 10:49:10;;;;;;;3.10;1.30;;;;;;;27.13;24.59;97042.80;109841;1251;59731;-78
2022/06/23 10:52:05;;;;;;;2.40;1.80;;;;;;;27.57;24.61;97041.79;109979;1250;59688;-77
2022/06/23 10:54:52;;;;;;;2.60;1.30;;;;;;;27.96;23.75;97044.58;109795;1250;71615;-70
2022/06/23 10:57:36;;;;;;;1.40;1.20;;;;;;;27.93;23.07;97045.95;109930;1250;68626;-82
2022/06/23 11:00:37;;;;;;;1.50;1.30;;;;;;;27.81;22.45;97046.11;110175;1249;68606;-79
2022/06/23 11:03:21;;;;;;;2.60;1.60;;;;;;;27.45;23.19;97039.77;109682;1250;59737;-79
2022/06/23 11:06:12;;;;;;;2.70;1.20;;;;;;;27.77;23.83;97044.12;109931;1250;59704;-82
2022/06/23 11:09:21;;;;;;;1.60;1.10;;;;;;;28.07;23.23;97045.48;109898;1250;72185;-80
2022/06/23 11:12:23;;;;;;;2.30;1.50;;;;;;;28.18;22.52;97053.54;109831;1250;67961;-79
2022/06/23 11:15:22;;;;;;;1.10;1.00;;;;;;;28.33;22.58;97052.42;109927;1250;68475;-80
2022/06/23 11:18:23;;;;;;;2.40;1.30;;;;;;;28.48;22.25;97050.86;109869;1250;59764;-79
2022/06/23 11:21:23;;;;;;;2.10;1.30;;;;;;;28.50;22.24;97049.95;109922;1250;59638;-78
2022/06/23 11:24:18;;;;;;;1.40;1.00;;;;;;;28.51;22.25;97049.86;109955;1250;71505;-79
2022/06/23 11:26:52;;;;;;;2.30;1.20;;;;;;;28.49;22.29;97052.45;109773;1251;69252;-82
2022/06/23 11:29:37;;;;;;;1.70;1.30;;;;;;;28.34;21.78;97047.93;110043;1250;68642;-83
2022/06/23 11:32:50;;;;;;;1.80;1.20;;;;;;;28.26;22.84;97056.89;109873;1251;59795;-79
2022/06/23 11:35:26;;;;;;;2.80;1.10;;;;;;;28.35;23.13;97051.60;109774;1250;60099;-81
2022/06/23 11:38:17;;;;;;;1.60;1.30;;;;;;;28.40;23.10;97047.38;109946;1250;70597;-77
2022/06/23 11:41:04;;;;;;;2.50;1.30;;;;;;;28.36;23.49;97046.95;109929;1249;67624;-79
2022/06/23 11:43:42;;;;;;;1.90;1.10;;;;;;;28.44;22.62;97044.17;109957;1250;69449;-80
2022/06/23 11:46:33;;;;;;;1.40;1.00;;;;;;;28.53;22.83;97039.22;109945;1250;59761;-80
2022/06/23 11:49:24;;;;;;;3.00;1.40;;;;;;;28.47;23.87;97033.82;110184;1249;59675;-80
2022/06/23 11:52:13;;;;;;;1.40;1.10;;;;;;;28.40;23.58;97032.96;110113;1250;69951;-79
2022/06/23 11:55:08;;;;;;;1.40;1.20;;;;;;;28.54;23.49;97032.42;109785;1252;67913;-78
2022/06/23 11:57:57;;;;;;;1.80;1.60;;;;;;;28.60;23.33;97037.06;109875;1250;69554;-78
2022/06/23 12:00:38;;;;;;;1.60;1.30;;;;;;;28.57;22.98;97038.27;109822;1250;59741;-76
2022/06/23 12:03:29;;;;;;;2.90;1.50;;;;;;;28.75;23.10;97039.43;109873;1250;59647;-80
2022/06/23 12:06:01;;;;;;;1.50;1.30;;;;;;;28.55;23.27;97033.55;109953;1250;71577;-76
2022/06/23 12:08:30;;;;;;;1.40;1.30;;;;;;;28.42;23.62;97029.55;109900;1250;67839;-74
2022/06/23 12:11:00;;;;;;;1.50;1.20;;;;;;;28.39;23.53;97031.48;110104;1250;69566;-78
2022/06/23 12:13:33;;;;;;;2.10;1.10;;;;;;;28.52;23.63;97035.48;109931;1250;59641;-75
2022/06/23 12:16:02;;;;;;;1.50;1.10;;;;;;;28.77;23.16;97037.08;109949;1250;59760;-76
2022/06/23 12:18:48;;;;;;;2.40;1.30;;;;;;;28.89;22.78;97026.63;109976;1250;72263;-76
2022/06/23 12:21:41;;;;;;;1.80;1.20;;;;;;;28.78;22.12;97025.46;110050;1250;67863;-76
2022/06/23 12:24:34;;;;;;;1.30;1.10;;;;;;;28.95;22.22;97023.29;110080;1249;68647;-74
2022/06/23 12:27:30;;;;;;;2.00;1.30;;;;;;;28.74;21.27;97026.67;109805;1251;59694;-78
2022/06/23 12:30:05;;;;;;;1.40;1.00;;;;;;;28.34;21.71;97023.87;109908;1250;59689;-75
2022/06/23 12:33:12;;;;;;;5.30;1.70;;;;;;;27.86;21.65;97019.81;109974;1250;72009;-73
2022/06/23 12:35:58;;;;;;;1.40;1.20;;;;;;;27.19;21.88;97016.85;109940;1250;67960;-75
2022/06/23 12:38:36;;;;;;;1.80;1.50;;;;;;;26.94;22.26;97018.75;109859;1250;69471;-75
2022/06/23 12:41:27;;;;;;;1.80;1.10;;;;;;;27.29;24.11;97020.99;109880;1250;59738;-78
2022/06/23 12:44:18;;;;;;;2.90;1.00;;;;;;;27.71;23.94;97022.18;110011;1248;59767;-77
2022/06/23 12:47:13;;;;;;;2.00;1.40;;;;;;;28.07;23.52;97019.91;109942;1250;70985;-79
2022/06/23 12:50:18;;;;;;;2.30;1.40;;;;;;;28.27;22.61;97015.64;109995;1250;67809;-71
2022/06/23 12:53:07;;;;;;;1.70;1.20;;;;;;;28.43;22.87;97011.07;110134;1250;69191;-77
2022/06/23 12:55:53;;;;;;;1.80;1.20;;;;;;;28.49;22.87;97004.52;110178;1250;59756;-74